Time;durP1;ratioP1;P1;durP2;ratioP2;P2;SDS_P1;SDS_P2;PMS_P1;PMS_P2;Temp;Humidity;BMP_temperature;BMP_pressure;BME280_temperature;BME280_humidity;BME280_pressure;Samples;Min_cycle;Max_cycle;Signal;HPM_P1;HPM_P2
2021/10/12 00:00:58;;;;;;;20.02;16.67;;;12.90;93.40;;;;;;5093460;28;20039;-67
2021/10/12 00:03:24;;;;;;;18.30;15.25;;;12.90;93.30;;;;;;5093420;28;20043;-69
2021/10/12 00:05:51;;;;;;;18.30;15.65;;;12.90;93.30;;;;;;5093607;28;20067;-68
2021/10/12 00:08:18;;;;;;;18.08;15.00;;;12.90;93.20;;;;;;5073948;28;20039;-70
2021/10/12 00:10:44;;;;;;;21.70;15.63;;;12.90;93.20;;;;;;5093802;28;20031;-70
2021/10/12 00:13:11;;;;;;;17.50;15.70;;;12.80;93.30;;;;;;5093087;28;20472;-67
2021/10/12 00:15:37;;;;;;;21.27;15.68;;;12.80;93.40;;;;;;5074976;28;20380;-67
2021/10/12 00:18:04;;;;;;;23.90;15.30;;;12.90;93.40;;;;;;5093375;28;20032;-67
2021/10/12 00:20:30;;;;;;;19.23;16.70;;;12.80;93.60;;;;;;5093317;28;20051;-68
2021/10/12 00:22:56;;;;;;;18.95;16.45;;;12.80;93.70;;;;;;5092185;28;20442;-68
2021/10/12 00:25:23;;;;;;;19.10;14.93;;;12.80;93.70;;;;;;5092134;28;20055;-68
2021/10/12 00:27:50;;;;;;;23.90;17.02;;;12.70;93.80;;;;;;5093146;28;20472;-67
2021/10/12 00:30:16;;;;;;;19.95;17.35;;;12.80;94.00;;;;;;5092881;28;20065;-67
2021/10/12 00:32:43;;;;;;;22.55;17.33;;;12.70;94.00;;;;;;5093061;28;20380;-67
2021/10/12 00:35:09;;;;;;;18.45;16.38;;;12.70;93.80;;;;;;5092776;28;20476;-69
2021/10/12 00:37:36;;;;;;;21.67;16.50;;;12.70;93.70;;;;;;5074807;28;20031;-68
2021/10/12 00:40:04;;;;;;;20.70;16.73;;;12.70;93.80;;;;;;5092493;28;20036;-69
2021/10/12 00:42:31;;;;;;;20.95;16.15;;;12.70;93.80;;;;;;5091605;28;20040;-69
2021/10/12 00:44:58;;;;;;;21.10;16.05;;;12.70;93.80;;;;;;5092625;28;20372;-69
2021/10/12 00:47:25;;;;;;;20.63;16.23;;;12.60;94.00;;;;;;5093258;28;20372;-69
2021/10/12 00:49:52;;;;;;;19.73;15.23;;;12.60;93.90;;;;;;5092397;28;20043;-66
2021/10/12 00:52:18;;;;;;;18.85;15.85;;;12.60;94.00;;;;;;5092544;28;20051;-68
2021/10/12 00:54:45;;;;;;;21.00;16.27;;;12.60;93.80;;;;;;5092707;28;20365;-69
2021/10/12 00:57:12;;;;;;;19.23;16.20;;;12.60;93.80;;;;;;5092535;28;20032;-68
2021/10/12 00:59:41;;;;;;;20.58;15.75;;;12.50;93.60;;;;;;5091752;28;20191;-68
2021/10/12 01:02:08;;;;;;;21.38;16.98;;;12.50;93.60;;;;;;5092293;28;20040;-66
2021/10/12 01:04:35;;;;;;;19.77;16.08;;;12.50;93.70;;;;;;5074886;28;20024;-69
2021/10/12 01:07:03;;;;;;;22.75;16.80;;;12.40;93.70;;;;;;5092233;28;20376;-69
2021/10/12 01:09:29;;;;;;;22.73;17.58;;;12.40;93.80;;;;;;5092380;28;20047;-68
2021/10/12 01:11:56;;;;;;;23.35;16.52;;;12.40;93.70;;;;;;5092252;28;20035;-67
2021/10/12 01:14:22;;;;;;;20.58;16.80;;;12.40;93.60;;;;;;5092569;28;20031;-67
2021/10/12 01:16:49;;;;;;;19.65;16.45;;;12.40;93.60;;;;;;5073984;28;20047;-68
2021/10/12 01:19:18;;;;;;;18.70;15.48;;;12.30;93.60;;;;;;5092414;28;20357;-67
2021/10/12 01:21:47;;;;;;;17.10;15.30;;;12.30;93.60;;;;;;5092103;28;20048;-68
2021/10/12 01:24:15;;;;;;;19.48;15.32;;;12.30;93.50;;;;;;5092091;28;20491;-68
2021/10/12 01:26:42;;;;;;;20.60;15.57;;;12.20;93.50;;;;;;5091785;28;20656;-67
2021/10/12 01:29:11;;;;;;;20.50;17.80;;;12.30;93.40;;;;;;5092436;28;20036;-69
2021/10/12 01:31:38;;;;;;;18.02;15.80;;;12.30;93.50;;;;;;5074217;28;20130;-67
2021/10/12 01:34:13;;;;;;;20.15;15.82;;;12.20;93.70;;;;;;5092092;28;20040;-68
2021/10/12 01:36:40;;;;;;;18.67;15.32;;;12.20;93.60;;;;;;5092242;28;20028;-68
2021/10/12 01:39:07;;;;;;;18.00;16.08;;;12.20;93.60;;;;;;5091410;28;20051;-67
2021/10/12 01:41:36;;;;;;;19.33;15.45;;;12.20;93.60;;;;;;5092093;28;20024;-67
2021/10/12 01:44:03;;;;;;;18.35;16.42;;;12.20;93.50;;;;;;5091920;28;20400;-68
2021/10/12 01:46:29;;;;;;;19.35;17.10;;;12.10;93.60;;;;;;5092161;28;20028;-66
2021/10/12 01:48:56;;;;;;;20.42;16.88;;;12.10;93.60;;;;;;5091905;28;20043;-67
2021/10/12 01:51:22;;;;;;;20.33;15.90;;;12.00;93.70;;;;;;5091793;28;20024;-68
2021/10/12 01:53:49;;;;;;;22.80;17.33;;;12.00;93.70;;;;;;5091619;28;20036;-65
2021/10/12 01:56:15;;;;;;;18.38;16.17;;;12.00;93.80;;;;;;5092040;28;20024;-69
2021/10/12 01:58:45;;;;;;;23.08;16.98;;;12.00;93.70;;;;;;5073840;28;20032;-69
2021/10/12 02:01:17;;;;;;;;;;;12.00;93.70;;;;;;5092435;28;20456;-70
2021/10/12 02:03:43;;;;;;;18.65;15.00;;;12.00;93.90;;;;;;5090993;28;19916;-68
2021/10/12 02:06:10;;;;;;;20.23;15.75;;;11.90;93.80;;;;;;5091911;28;20039;-68
2021/10/12 02:08:36;;;;;;;20.15;17.08;;;11.90;93.80;;;;;;5091323;28;20383;-68
2021/10/12 02:11:03;;;;;;;18.70;16.25;;;11.90;93.80;;;;;;5092438;28;20053;-68
2021/10/12 02:13:30;;;;;;;19.40;16.38;;;11.90;93.70;;;;;;5097031;28;20031;-66
2021/10/12 02:15:57;;;;;;;20.20;17.40;;;11.90;93.70;;;;;;5095041;28;20031;-68
2021/10/12 02:18:23;;;;;;;19.40;16.65;;;11.90;93.80;;;;;;5094846;28;20375;-67
2021/10/12 02:20:50;;;;;;;21.33;16.20;;;11.80;93.70;;;;;;5095118;28;20459;-68
2021/10/12 02:23:17;;;;;;;20.10;17.15;;;11.80;93.80;;;;;;5095049;28;20467;-69
2021/10/12 02:25:44;;;;;;;20.58;16.20;;;11.80;93.80;;;;;;5095060;28;20036;-68
2021/10/12 02:28:11;;;;;;;20.60;17.02;;;11.80;93.90;;;;;;5095379;28;20032;-68
2021/10/12 02:30:37;;;;;;;20.98;16.58;;;11.70;94.10;;;;;;5095187;28;20039;-68
2021/10/12 02:33:04;;;;;;;19.70;16.23;;;11.70;94.10;;;;;;5095311;28;20020;-67
2021/10/12 02:35:30;;;;;;;20.52;16.20;;;11.70;94.10;;;;;;5094913;28;20059;-68
2021/10/12 02:37:57;;;;;;;20.50;16.95;;;11.70;94.10;;;;;;5095316;28;20383;-67
2021/10/12 02:40:23;;;;;;;21.17;16.90;;;11.60;94.20;;;;;;5094852;28;20563;-68
2021/10/12 02:42:50;;;;;;;19.40;16.42;;;11.60;94.30;;;;;;5095031;28;20379;-68
2021/10/12 02:45:16;;;;;;;19.27;16.33;;;11.60;94.40;;;;;;5094903;28;20028;-67
2021/10/12 02:47:43;;;;;;;18.42;16.42;;;11.60;94.40;;;;;;5094176;28;20052;-67
2021/10/12 02:50:10;;;;;;;20.55;15.48;;;11.60;94.50;;;;;;5076777;28;20032;-69
2021/10/12 02:52:36;;;;;;;18.27;15.30;;;11.50;94.70;;;;;;5095198;28;20047;-69
2021/10/12 02:55:04;;;;;;;19.80;16.40;;;11.50;94.80;;;;;;5094985;28;20032;-68
2021/10/12 02:57:34;;;;;;;21.02;15.77;;;11.50;94.90;;;;;;5094562;28;20028;-68
2021/10/12 03:00:04;;;;;;;19.52;16.70;;;11.50;94.80;;;;;;5093795;28;20388;-68
2021/10/12 03:02:31;;;;;;;18.67;16.45;;;11.50;94.60;;;;;;5093196;28;20510;-68
2021/10/12 03:04:57;;;;;;;19.65;16.63;;;11.40;94.70;;;;;;5094669;28;20032;-69
2021/10/12 03:07:24;;;;;;;18.70;16.58;;;11.40;94.80;;;;;;5094409;28;20032;-68
2021/10/12 03:09:50;;;;;;;21.63;17.95;;;11.40;94.80;;;;;;5093303;28;20498;-69
2021/10/12 03:12:17;;;;;;;19.98;17.48;;;11.40;94.80;;;;;;5093587;28;20048;-69
2021/10/12 03:14:44;;;;;;;19.08;15.68;;;11.30;94.70;;;;;;5094565;28;20047;-69
2021/10/12 03:17:10;;;;;;;19.00;15.95;;;11.30;94.80;;;;;;5094233;28;20047;-68
2021/10/12 03:19:37;;;;;;;24.70;17.00;;;11.30;94.90;;;;;;5076735;28;20036;-68
2021/10/12 03:22:15;;;;;;;23.13;17.17;;;11.30;95.00;;;;;;5094221;28;20054;-69
2021/10/12 03:24:42;;;;;;;19.60;16.27;;;11.20;95.10;;;;;;5094160;28;20024;-68
2021/10/12 03:27:11;;;;;;;19.67;16.10;;;11.30;95.10;;;;;;5094301;28;20040;-68
2021/10/12 03:29:38;;;;;;;19.15;15.40;;;11.30;95.20;;;;;;5093998;28;20028;-67
2021/10/12 03:32:05;;;;;;;18.73;15.70;;;11.30;95.40;;;;;;5094484;28;20039;-68
2021/10/12 03:34:32;;;;;;;20.90;17.00;;;11.40;95.30;;;;;;5093471;28;20495;-68
2021/10/12 03:36:59;;;;;;;24.27;17.40;;;11.40;95.20;;;;;;5076161;28;20044;-61
2021/10/12 03:39:27;;;;;;;22.08;18.48;;;11.40;95.10;;;;;;5075888;28;20032;-68
2021/10/12 03:41:54;;;;;;;21.30;16.88;;;11.40;95.00;;;;;;5093302;28;20048;-67
2021/10/12 03:44:22;;;;;;;21.95;18.33;;;11.40;95.10;;;;;;5075676;28;20055;-67
2021/10/12 03:46:50;;;;;;;23.42;18.13;;;11.40;95.10;;;;;;5094147;28;20471;-66
2021/10/12 03:49:17;;;;;;;23.17;16.70;;;11.50;95.00;;;;;;5094236;28;20035;-69
2021/10/12 03:51:43;;;;;;;24.40;17.40;;;11.50;94.90;;;;;;5093654;28;20036;-70
2021/10/12 03:54:11;;;;;;;21.95;17.33;;;11.50;94.80;;;;;;5093043;28;20044;-69
2021/10/12 03:56:37;;;;;;;25.25;18.00;;;11.50;94.70;;;;;;5093744;28;20028;-69
2021/10/12 03:59:04;;;;;;;26.83;17.33;;;11.50;94.40;;;;;;5093426;28;20032;-68
2021/10/12 04:01:31;;;;;;;73.15;23.77;;;11.60;94.40;;;;;;5093768;28;20036;-68
2021/10/12 04:03:59;;;;;;;52.67;20.52;;;11.60;94.40;;;;;;5093889;28;20036;-69
2021/10/12 04:06:25;;;;;;;31.95;18.35;;;11.60;94.20;;;;;;5093734;28;20032;-69
2021/10/12 04:08:51;;;;;;;26.02;17.92;;;11.60;94.00;;;;;;5093145;28;20063;-69
2021/10/12 04:11:18;;;;;;;25.38;16.52;;;11.60;93.70;;;;;;5093379;28;20032;-69
2021/10/12 04:13:44;;;;;;;23.80;16.15;;;11.60;93.80;;;;;;5093592;28;20028;-69
2021/10/12 04:16:11;;;;;;;20.52;16.50;;;11.60;93.80;;;;;;5093017;28;20471;-68
2021/10/12 04:18:37;;;;;;;19.70;15.82;;;11.60;93.60;;;;;;5093590;28;20345;-69
2021/10/12 04:21:04;;;;;;;25.98;16.60;;;11.60;93.20;;;;;;5075047;28;20036;-67
2021/10/12 04:23:31;;;;;;;19.60;15.85;;;11.60;92.90;;;;;;5075106;28;20067;-67
2021/10/12 04:25:57;;;;;;;18.42;14.10;;;11.70;92.30;;;;;;5093042;28;20139;-66
2021/10/12 04:28:25;;;;;;;18.83;14.48;;;11.70;92.10;;;;;;5093486;28;20471;-68
2021/10/12 04:30:51;;;;;;;22.50;15.57;;;11.70;91.70;;;;;;5075066;28;20028;-68
2021/10/12 04:33:18;;;;;;;23.60;15.65;;;11.70;92.30;;;;;;5093216;28;20043;-68
2021/10/12 04:35:45;;;;;;;28.35;16.02;;;11.70;92.30;;;;;;5092889;28;20036;-69
2021/10/12 04:38:12;;;;;;;18.08;15.35;;;11.70;92.10;;;;;;5092490;28;20029;-68
2021/10/12 04:40:41;;;;;;;21.55;15.55;;;11.70;91.90;;;;;;5092819;28;20036;-68
2021/10/12 04:43:08;;;;;;;18.75;15.52;;;11.70;91.60;;;;;;5092737;28;20483;-68
2021/10/12 04:45:37;;;;;;;21.50;14.88;;;11.80;91.50;;;;;;5092295;28;20040;-67
2021/10/12 04:48:04;;;;;;;18.80;15.35;;;11.80;91.50;;;;;;5091797;28;20063;-68
2021/10/12 04:50:31;;;;;;;27.27;17.17;;;11.80;91.50;;;;;;5092519;28;20032;-67
2021/10/12 04:53:01;;;;;;;19.83;15.00;;;11.80;91.60;;;;;;5092265;28;20039;-67
2021/10/12 04:55:29;;;;;;;19.20;15.45;;;11.80;91.80;;;;;;5092919;28;20047;-65
2021/10/12 04:57:56;;;;;;;23.85;16.42;;;11.80;92.30;;;;;;5092637;28;20036;-68
2021/10/12 05:00:22;;;;;;;17.70;14.52;;;11.70;92.80;;;;;;5092319;28;20028;-67
2021/10/12 05:02:49;;;;;;;18.88;16.08;;;11.70;93.00;;;;;;5074188;28;20047;-68
2021/10/12 05:05:15;;;;;;;21.00;14.90;;;11.70;93.10;;;;;;5092482;28;20039;-68
2021/10/12 05:07:42;;;;;;;20.17;15.65;;;11.60;93.30;;;;;;5092036;28;20032;-68
2021/10/12 05:10:08;;;;;;;20.95;17.23;;;11.60;93.10;;;;;;5091569;28;20044;-68
2021/10/12 05:12:35;;;;;;;19.65;15.73;;;11.50;93.10;;;;;;5092319;28;20028;-68
2021/10/12 05:15:03;;;;;;;18.70;14.88;;;11.40;93.40;;;;;;5092158;28;20024;-68
2021/10/12 05:17:36;;;;;;;19.50;15.93;;;11.40;93.50;;;;;;5091055;28;20062;-67
2021/10/12 05:20:03;;;;;;;17.73;15.35;;;11.40;93.60;;;;;;5090526;28;20044;-66
2021/10/12 05:22:31;;;;;;;20.52;15.85;;;11.30;93.80;;;;;;5091230;28;20052;-67
2021/10/12 05:24:58;;;;;;;24.05;16.85;;;11.30;94.40;;;;;;5074380;28;20036;-70
2021/10/12 05:27:25;;;;;;;21.25;16.70;;;11.30;94.20;;;;;;5092124;28;20032;-67
2021/10/12 05:29:52;;;;;;;19.50;14.90;;;11.30;94.00;;;;;;5091996;28;20035;-68
2021/10/12 05:32:18;;;;;;;23.92;15.40;;;11.20;94.00;;;;;;5084221;28;20036;-68
2021/10/12 05:34:45;;;;;;;19.02;15.77;;;11.20;94.10;;;;;;5086605;28;20483;-67
2021/10/12 05:37:11;;;;;;;23.20;15.82;;;11.10;94.30;;;;;;5088962;28;20036;-67
2021/10/12 05:39:39;;;;;;;19.10;15.65;;;11.10;94.50;;;;;;5085652;28;20042;-69
2021/10/12 05:42:07;;;;;;;24.60;16.40;;;11.00;94.50;;;;;;5087429;28;20396;-70
2021/10/12 05:44:33;;;;;;;21.90;15.15;;;11.00;94.40;;;;;;5085726;28;20044;-68
2021/10/12 05:46:59;;;;;;;20.85;16.08;;;11.00;94.40;;;;;;5091046;28;20463;-68
2021/10/12 05:49:26;;;;;;;25.00;15.77;;;10.90;94.30;;;;;;5091658;28;20027;-66
2021/10/12 05:51:52;;;;;;;19.55;15.65;;;10.90;94.40;;;;;;5059290;28;20036;-68
2021/10/12 05:54:22;;;;;;;21.05;16.15;;;10.90;94.50;;;;;;5090479;28;20035;-67
2021/10/12 05:56:56;;;;;;;18.67;15.15;;;10.90;94.60;;;;;;5093142;28;20577;-69
2021/10/12 05:59:22;;;;;;;22.38;16.35;;;10.90;94.60;;;;;;5088765;28;20020;-69
2021/10/12 06:01:49;;;;;;;27.75;16.75;;;10.90;94.70;;;;;;5061976;28;20036;-69
2021/10/12 06:04:15;;;;;;;36.00;17.40;;;10.90;94.70;;;;;;5082002;28;20039;-69
2021/10/12 06:06:42;;;;;;;26.33;16.45;;;10.90;94.70;;;;;;5077824;28;20511;-62
2021/10/12 06:09:10;;;;;;;23.05;15.88;;;10.90;94.90;;;;;;5086912;28;20148;-64
2021/10/12 06:11:36;;;;;;;22.67;16.45;;;10.90;95.00;;;;;;5080011;28;20127;-66
2021/10/12 06:14:03;;;;;;;19.63;15.63;;;10.90;95.00;;;;;;5083546;28;20032;-61
2021/10/12 06:16:29;;;;;;;18.92;15.65;;;10.90;94.90;;;;;;5088328;28;20024;-68
2021/10/12 06:18:56;;;;;;;22.60;16.70;;;10.90;94.90;;;;;;5081630;28;20048;-67
2021/10/12 06:21:22;;;;;;;29.20;15.50;;;10.90;95.00;;;;;;5085072;28;20024;-67
2021/10/12 06:23:49;;;;;;;28.42;17.45;;;10.90;95.10;;;;;;5081739;28;20047;-69
2021/10/12 06:26:15;;;;;;;22.88;17.65;;;10.90;95.10;;;;;;5066676;28;20043;-68
2021/10/12 06:28:42;;;;;;;21.98;15.75;;;11.00;95.10;;;;;;5090244;28;20036;-64
2021/10/12 06:31:08;;;;;;;22.35;16.10;;;11.10;95.00;;;;;;5080516;28;20372;-65
2021/10/12 06:33:35;;;;;;;25.33;17.65;;;11.20;94.90;;;;;;5080029;28;20044;-65
2021/10/12 06:36:01;;;;;;;23.88;17.33;;;11.30;94.70;;;;;;5080298;28;20020;-64
2021/10/12 06:38:28;;;;;;;30.70;17.20;;;11.30;94.70;;;;;;5082616;28;20035;-63
2021/10/12 06:40:54;;;;;;;28.80;16.95;;;11.40;94.60;;;;;;5085454;28;20031;-60
2021/10/12 06:43:21;;;;;;;27.17;18.60;;;11.60;94.30;;;;;;5077517;28;20032;-63
2021/10/12 06:45:47;;;;;;;26.92;18.23;;;11.60;94.20;;;;;;5085555;28;20047;-62
2021/10/12 06:48:14;;;;;;;22.10;17.02;;;11.70;94.10;;;;;;5080375;28;20036;-61
2021/10/12 06:50:40;;;;;;;26.98;17.83;;;11.80;93.70;;;;;;5078866;28;20043;-63
2021/10/12 06:53:07;;;;;;;22.35;15.90;;;11.90;93.80;;;;;;5081504;28;20032;-62
2021/10/12 06:55:33;;;;;;;22.13;17.02;;;12.00;93.40;;;;;;5067107;28;20031;-63
2021/10/12 06:58:00;;;;;;;25.73;18.00;;;12.00;92.90;;;;;;5079944;28;20055;-64
2021/10/12 07:00:27;;;;;;;35.08;23.70;;;12.10;92.80;;;;;;5083264;28;20033;-65
2021/10/12 07:02:54;;;;;;;32.88;24.48;;;12.20;92.50;;;;;;5085397;28;20067;-63
2021/10/12 07:05:20;;;;;;;32.05;23.92;;;12.30;92.30;;;;;;5072989;28;20061;-64
2021/10/12 07:07:47;;;;;;;31.05;21.92;;;12.40;92.40;;;;;;5068122;28;20047;-64
2021/10/12 07:10:14;;;;;;;28.42;21.63;;;12.40;92.20;;;;;;5088747;28;20040;-62
2021/10/12 07:12:41;;;;;;;27.08;22.52;;;12.50;92.00;;;;;;5086914;28;20482;-67
2021/10/12 07:15:08;;;;;;;29.73;21.48;;;12.50;91.80;;;;;;5088004;28;20027;-63
2021/10/12 07:17:35;;;;;;;25.95;20.52;;;12.50;91.80;;;;;;5078516;28;20036;-62
2021/10/12 07:20:03;;;;;;;25.70;20.00;;;12.60;91.60;;;;;;5064498;28;20025;-64
2021/10/12 07:22:29;;;;;;;27.00;19.45;;;12.70;91.40;;;;;;5080032;28;20039;-65
2021/10/12 07:24:56;;;;;;;21.13;16.52;;;12.80;91.50;;;;;;5078129;28;20040;-64
2021/10/12 07:27:22;;;;;;;25.67;18.15;;;12.90;90.00;;;;;;5076678;28;20028;-65
2021/10/12 07:29:51;;;;;;;21.80;16.13;;;13.00;89.60;;;;;;5073901;28;20021;-64
2021/10/12 07:32:18;;;;;;;23.65;16.02;;;13.10;89.20;;;;;;5059164;28;20033;-65
2021/10/12 07:34:45;;;;;;;21.15;16.05;;;13.10;88.30;;;;;;5078267;28;20028;-63
2021/10/12 07:37:11;;;;;;;25.60;18.15;;;13.10;88.10;;;;;;5076479;28;20040;-65
2021/10/12 07:39:41;;;;;;;26.40;17.10;;;13.10;88.10;;;;;;5086154;28;20371;-61
2021/10/12 07:42:12;;;;;;;19.00;16.57;;;13.20;88.20;;;;;;5073548;28;20040;-62
2021/10/12 07:44:40;;;;;;;27.02;17.00;;;13.30;87.20;;;;;;5072037;28;20036;-64
2021/10/12 07:47:08;;;;;;;18.33;15.27;;;13.40;86.20;;;;;;5089462;28;20036;-62
2021/10/12 07:49:35;;;;;;;19.88;15.77;;;13.40;83.10;;;;;;5072346;28;20043;-63
2021/10/12 07:52:06;;;;;;;19.40;15.30;;;13.50;82.40;;;;;;5093957;28;20032;-63
2021/10/12 07:57:12;;;;;;;24.27;15.95;;;13.70;82.90;;;;;;5094171;28;20043;-63
2021/10/12 07:59:39;;;;;;;25.55;15.13;;;13.80;82.00;;;;;;5074608;28;20020;-63
2021/10/12 08:02:06;;;;;;;20.02;15.57;;;13.90;81.80;;;;;;5092197;28;20464;-63
2021/10/12 08:04:33;;;;;;;23.08;16.67;;;14.00;82.20;;;;;;5093193;28;20047;-62
2021/10/12 08:06:59;;;;;;;20.92;16.42;;;14.00;82.90;;;;;;5093332;28;20052;-63
2021/10/12 08:09:26;;;;;;;21.88;16.77;;;14.10;82.50;;;;;;5088768;28;20480;-62
2021/10/12 08:11:53;;;;;;;21.42;16.83;;;14.20;83.00;;;;;;5081037;28;20047;-62
2021/10/12 08:14:21;;;;;;;21.83;17.42;;;14.20;82.60;;;;;;5075301;28;20033;-62
2021/10/12 08:16:48;;;;;;;20.52;17.45;;;14.30;82.00;;;;;;5072235;28;20044;-62
2021/10/12 08:19:14;;;;;;;20.13;16.13;;;14.30;81.20;;;;;;5072094;28;20043;-62
2021/10/12 08:21:41;;;;;;;21.40;17.67;;;14.40;81.30;;;;;;5071709;28;20476;-62
2021/10/12 08:24:08;;;;;;;21.08;17.00;;;14.50;80.90;;;;;;5072266;28;20044;-62
2021/10/12 08:26:34;;;;;;;21.52;17.65;;;14.50;80.80;;;;;;5072217;28;20044;-61
2021/10/12 08:29:06;;;;;;;21.60;16.83;;;14.50;80.80;;;;;;5072625;28;20044;-62
2021/10/12 08:31:33;;;;;;;25.95;18.45;;;14.60;81.20;;;;;;5072662;28;20040;-62
2021/10/12 08:33:59;;;;;;;22.63;17.40;;;14.70;81.30;;;;;;5072412;28;20063;-62
2021/10/12 08:36:26;;;;;;;22.05;19.35;;;14.80;81.20;;;;;;5072578;28;20111;-62
2021/10/12 08:38:56;;;;;;;19.70;17.15;;;14.80;81.00;;;;;;5072076;28;20037;-63
2021/10/12 08:41:29;;;;;;;22.17;17.17;;;14.90;81.00;;;;;;5072407;28;20047;-63
2021/10/12 08:43:58;;;;;;;20.40;17.95;;;14.90;80.00;;;;;;5072536;28;20045;-63
2021/10/12 08:46:28;;;;;;;20.65;17.73;;;15.00;79.20;;;;;;5071242;28;20040;-62
2021/10/12 08:48:56;;;;;;;19.83;16.33;;;15.00;79.10;;;;;;5072398;28;20062;-64
2021/10/12 08:51:24;;;;;;;18.40;15.60;;;15.10;77.80;;;;;;5072280;28;20055;-63
2021/10/12 08:53:50;;;;;;;19.17;16.85;;;14.90;77.00;;;;;;5072473;28;20045;-63
2021/10/12 08:56:17;;;;;;;22.13;18.20;;;15.00;77.40;;;;;;5072047;28;20052;-62
2021/10/12 08:58:43;;;;;;;18.63;16.38;;;15.10;77.00;;;;;;5071492;28;20041;-62
2021/10/12 09:01:14;;;;;;;25.40;16.67;;;15.00;76.20;;;;;;5072072;28;20048;-63
2021/10/12 09:04:02;;;;;;;19.77;16.10;;;15.00;76.10;;;;;;5072700;28;20047;-63
2021/10/12 09:06:30;;;;;;;19.58;17.38;;;15.10;76.50;;;;;;5072030;28;20052;-63
2021/10/12 09:09:07;;;;;;;24.40;17.48;;;15.10;78.00;;;;;;5071562;28;20052;-64
2021/10/12 09:11:35;;;;;;;24.73;17.65;;;15.20;78.30;;;;;;5072013;28;20044;-63
2021/10/12 09:14:11;;;;;;;20.23;17.25;;;15.20;78.80;;;;;;5072084;28;20045;-63
2021/10/12 09:16:41;;;;;;;19.95;17.40;;;15.30;78.50;;;;;;5073299;28;20043;-61
2021/10/12 09:19:09;;;;;;;24.48;18.67;;;15.30;77.60;;;;;;5062730;28;20032;-62
2021/10/12 09:21:41;;;;;;;19.55;16.73;;;15.40;77.30;;;;;;5079970;28;20032;-63
2021/10/12 09:24:10;;;;;;;22.92;19.63;;;15.40;76.60;;;;;;5083269;28;20053;-61
2021/10/12 09:26:41;;;;;;;23.50;20.67;;;15.50;76.70;;;;;;5074932;28;20032;-63
2021/10/12 09:29:24;;;;;;;22.05;19.08;;;15.50;75.40;;;;;;5074239;28;20044;-62
2021/10/12 09:31:53;;;;;;;23.35;18.92;;;15.50;75.60;;;;;;5081138;28;20048;-63
2021/10/12 09:34:20;;;;;;;25.75;20.40;;;15.50;75.20;;;;;;5079042;28;20048;-61
2021/10/12 09:36:48;;;;;;;22.98;18.80;;;15.60;75.10;;;;;;5077603;28;20040;-62
2021/10/12 09:39:27;;;;;;;29.00;20.25;;;15.60;74.40;;;;;;5079363;28;20055;-62
2021/10/12 09:41:56;;;;;;;20.40;17.88;;;15.50;73.70;;;;;;5081645;28;20043;-63
2021/10/12 09:44:23;;;;;;;25.02;20.42;;;15.50;74.10;;;;;;5076376;28;20507;-62
2021/10/12 09:46:53;;;;;;;23.55;20.23;;;15.50;73.90;;;;;;5081072;28;20040;-63
2021/10/12 09:49:24;;;;;;;30.55;21.00;;;15.50;74.60;;;;;;5081501;28;20040;-62
2021/10/12 09:52:00;;;;;;;24.20;21.50;;;15.60;75.00;;;;;;5078084;28;20048;-61
2021/10/12 09:54:39;;;;;;;24.58;19.90;;;15.60;73.90;;;;;;5081501;28;20051;-63
2021/10/12 09:57:07;;;;;;;23.50;19.60;;;15.60;74.20;;;;;;5077682;28;20032;-64
2021/10/12 09:59:34;;;;;;;27.23;20.30;;;15.60;73.30;;;;;;5083616;28;20050;-63
2021/10/12 10:02:01;;;;;;;26.55;20.88;;;15.60;73.80;;;;;;5083897;28;20500;-62
2021/10/12 10:04:30;;;;;;;25.17;19.42;;;15.60;72.80;;;;;;5081572;28;20483;-62
2021/10/12 10:07:16;;;;;;;25.13;19.85;;;15.70;72.90;;;;;;5073370;28;20499;-63
2021/10/12 10:09:44;;;;;;;29.73;21.52;;;15.80;73.10;;;;;;5081892;28;20044;-63
2021/10/12 10:12:12;;;;;;;25.35;20.95;;;15.90;73.80;;;;;;5075182;28;20044;-61
2021/10/12 10:14:39;;;;;;;30.33;22.65;;;15.90;73.20;;;;;;5078119;28;20446;-63
2021/10/12 10:17:07;;;;;;;27.48;22.52;;;15.90;72.60;;;;;;5079286;28;20388;-63
2021/10/12 10:19:41;;;;;;;22.80;19.95;;;15.90;70.70;;;;;;5071744;28;20050;-62
2021/10/12 10:22:07;;;;;;;24.05;21.02;;;15.90;70.80;;;;;;5081470;28;20058;-63
2021/10/12 10:24:34;;;;;;;29.70;22.83;;;16.00;71.40;;;;;;5075723;28;20041;-61
2021/10/12 10:27:02;;;;;;;27.13;21.35;;;16.00;71.70;;;;;;5081863;28;20055;-63
2021/10/12 10:29:38;;;;;;;29.00;23.08;;;16.10;71.90;;;;;;5079582;28;20040;-63
2021/10/12 10:32:20;;;;;;;26.63;22.60;;;16.20;71.50;;;;;;5076681;28;20039;-63
2021/10/12 10:34:57;;;;;;;25.95;22.35;;;16.20;70.40;;;;;;5085080;28;20510;-63
2021/10/12 10:37:28;;;;;;;25.20;21.23;;;16.20;69.60;;;;;;5080280;28;20052;-63
2021/10/12 10:39:57;;;;;;;27.05;20.10;;;16.30;69.50;;;;;;5084946;28;20395;-63
2021/10/12 10:42:26;;;;;;;28.60;22.48;;;16.30;69.50;;;;;;5079933;28;20044;-63
2021/10/12 10:45:01;;;;;;;27.67;23.30;;;16.20;69.20;;;;;;5084593;28;20032;-62
2021/10/12 10:47:49;;;;;;;24.83;22.13;;;16.20;69.90;;;;;;5082124;28;20025;-62
2021/10/12 10:50:25;;;;;;;28.92;23.52;;;16.20;69.70;;;;;;5085231;28;20028;-61
2021/10/12 10:52:58;;;;;;;26.02;21.80;;;16.30;69.30;;;;;;5079403;28;20484;-63
2021/10/12 10:55:27;;;;;;;28.83;23.70;;;16.40;67.50;;;;;;5085438;28;20507;-63
2021/10/12 10:58:13;;;;;;;27.80;22.80;;;16.40;66.20;;;;;;5082770;28;20035;-63
2021/10/12 11:00:44;;;;;;;26.35;22.15;;;16.40;66.80;;;;;;5088315;28;20032;-64
2021/10/12 11:03:29;;;;;;;30.95;22.05;;;16.50;67.20;;;;;;5087149;28;20032;-63
2021/10/12 11:05:57;;;;;;;25.08;21.35;;;16.60;65.60;;;;;;5081970;28;20049;-63
2021/10/12 11:08:27;;;;;;;29.65;22.38;;;16.60;64.90;;;;;;5080995;28;20027;-63
2021/10/12 11:11:09;;;;;;;25.70;22.73;;;16.60;66.00;;;;;;5084264;28;20024;-64
2021/10/12 11:13:43;;;;;;;24.70;21.08;;;16.60;65.70;;;;;;5081210;28;20935;-63
2021/10/12 11:16:13;;;;;;;29.10;22.08;;;16.70;65.20;;;;;;5080374;28;20035;-64
2021/10/12 11:18:45;;;;;;;27.95;21.55;;;16.70;64.70;;;;;;5079228;28;20546;-63
2021/10/12 11:21:14;;;;;;;26.25;22.88;;;16.80;64.10;;;;;;5084906;28;20458;-63
2021/10/12 11:23:54;;;;;;;28.70;22.08;;;16.70;63.70;;;;;;5080094;28;20032;-63
2021/10/12 11:26:22;;;;;;;26.13;21.67;;;16.70;63.70;;;;;;5084258;28;20035;-64
2021/10/12 11:28:52;;;;;;;28.55;21.02;;;16.80;63.10;;;;;;5088059;28;20028;-61
2021/10/12 11:31:21;;;;;;;30.38;24.73;;;16.90;61.70;;;;;;5087493;28;20352;-63
2021/10/12 11:33:50;;;;;;;36.58;32.42;;;16.90;60.90;;;;;;5087155;28;20036;-61
2021/10/12 11:36:23;;;;;;;35.35;28.67;;;16.90;61.60;;;;;;5084021;28;20028;-63
2021/10/12 11:39:02;;;;;;;35.60;29.30;;;17.00;62.40;;;;;;5087538;28;20043;-61
2021/10/12 11:41:36;;;;;;;40.28;33.67;;;17.00;64.00;;;;;;5086328;28;20385;-64
2021/10/12 11:44:21;;;;;;;41.65;35.33;;;17.00;64.50;;;;;;5079677;28;20507;-64
2021/10/12 11:46:54;;;;;;;33.80;26.00;;;17.10;64.90;;;;;;5076135;28;20036;-62
2021/10/12 11:49:23;;;;;;;27.40;22.60;;;17.10;63.00;;;;;;5074298;28;20419;-63
2021/10/12 11:51:50;;;;;;;25.23;22.48;;;17.10;63.00;;;;;;5077188;28;20041;-63
2021/10/12 11:54:22;;;;;;;25.65;21.70;;;17.00;62.90;;;;;;5083116;28;20164;-62
2021/10/12 11:56:51;;;;;;;24.17;21.50;;;17.10;63.20;;;;;;5083880;28;20423;-62
2021/10/12 11:59:17;;;;;;;25.00;20.95;;;17.10;63.50;;;;;;5086178;28;20479;-60
2021/10/12 12:01:46;;;;;;;23.80;20.80;;;17.10;63.60;;;;;;5086367;28;20039;-62
2021/10/12 12:04:28;;;;;;;26.35;20.48;;;17.20;61.90;;;;;;5083602;28;20040;-62
2021/10/12 12:06:56;;;;;;;31.88;20.30;;;17.20;61.00;;;;;;5085259;28;20048;-62
2021/10/12 12:09:24;;;;;;;23.70;19.55;;;17.20;60.40;;;;;;5082019;28;20041;-63
2021/10/12 12:11:52;;;;;;;23.08;19.75;;;17.20;60.80;;;;;;5089576;28;20043;-63
2021/10/12 12:14:23;;;;;;;26.35;20.48;;;17.20;61.00;;;;;;5086958;28;20043;-60
2021/10/12 12:17:19;;;;;;;21.95;17.75;;;17.20;60.20;;;;;;5087245;28;20036;-63
2021/10/12 12:19:53;;;;;;;22.80;20.23;;;17.30;60.30;;;;;;5088405;28;20045;-62
2021/10/12 12:22:26;;;;;;;23.33;20.85;;;17.30;60.20;;;;;;5088409;28;20036;-62
2021/10/12 12:25:02;;;;;;;24.20;20.58;;;17.30;61.50;;;;;;5089286;28;20048;-62
2021/10/12 12:27:49;;;;;;;25.00;21.02;;;17.30;62.00;;;;;;5088400;28;20052;-63
2021/10/12 12:30:16;;;;;;;24.58;20.65;;;17.40;61.90;;;;;;5085454;28;20051;-63
2021/10/12 12:32:58;;;;;;;30.52;21.48;;;17.40;62.00;;;;;;5086098;28;20032;-62
2021/10/12 12:35:25;;;;;;;23.35;19.77;;;17.40;61.60;;;;;;5083037;28;20051;-62
2021/10/12 12:37:59;;;;;;;22.17;19.95;;;17.40;61.30;;;;;;5081751;28;20388;-62